sensor_id;sensor_type;location;lat;lon;timestamp;pressure;altitude;pressure_sealevel;temperature;humidity
17383;BME280;8809;51.892;8.384;2023-02-16T00:01:00;101443.50;;;3.14;100.00
17383;BME280;8809;51.892;8.384;2023-02-16T00:03:28;101439.59;;;3.09;100.00
17383;BME280;8809;51.892;8.384;2023-02-16T00:05:55;101436.66;;;3.04;100.00
17383;BME280;8809;51.892;8.384;2023-02-16T00:08:22;101435.50;;;3.01;100.00
17383;BME280;8809;51.892;8.384;2023-02-16T00:10:49;101429.44;;;3.00;100.00
17383;BME280;8809;51.892;8.384;2023-02-16T00:13:33;101432.78;;;2.99;100.00
17383;BME280;8809;51.892;8.384;2023-02-16T00:16:23;101430.19;;;2.99;100.00
17383;BME280;8809;51.892;8.384;2023-02-16T00:18:51;101430.09;;;2.97;100.00
17383;BME280;8809;51.892;8.384;2023-02-16T00:21:18;101430.09;;;2.97;100.00
17383;BME280;8809;51.892;8.384;2023-02-16T00:23:45;101432.53;;;2.96;100.00
17383;BME280;8809;51.892;8.384;2023-02-16T00:26:14;101421.97;;;2.93;100.00
17383;BME280;8809;51.892;8.384;2023-02-16T00:28:42;101423.50;;;2.91;100.00
17383;BME280;8809;51.892;8.384;2023-02-16T00:31:20;101425.03;;;2.89;100.00
17383;BME280;8809;51.892;8.384;2023-02-16T00:33:47;101414.63;;;2.87;100.00
17383;BME280;8809;51.892;8.384;2023-02-16T00:36:15;101411.66;;;2.83;100.00
17383;BME280;8809;51.892;8.384;2023-02-16T00:38:44;101409.97;;;2.83;100.00
17383;BME280;8809;51.892;8.384;2023-02-16T00:41:16;101407.13;;;2.80;100.00
17383;BME280;8809;51.892;8.384;2023-02-16T00:44:01;101407.78;;;2.78;100.00
17383;BME280;8809;51.892;8.384;2023-02-16T00:46:29;101410.25;;;2.76;100.00
17383;BME280;8809;51.892;8.384;2023-02-16T00:48:56;101404.69;;;2.72;100.00
17383;BME280;8809;51.892;8.384;2023-02-16T00:51:23;101407.78;;;2.68;100.00
17383;BME280;8809;51.892;8.384;2023-02-16T00:53:49;101411.25;;;2.68;100.00
17383;BME280;8809;51.892;8.384;2023-02-16T00:56:18;101407.78;;;2.68;100.00
17383;BME280;8809;51.892;8.384;2023-02-16T00:58:48;101402.34;;;2.65;100.00
17383;BME280;8809;51.892;8.384;2023-02-16T01:01:17;101404.66;;;2.61;100.00
17383;BME280;8809;51.892;8.384;2023-02-16T01:03:48;101403.09;;;2.53;100.00
17383;BME280;8809;51.892;8.384;2023-02-16T01:06:15;101400.53;;;2.53;100.00
17383;BME280;8809;51.892;8.384;2023-02-16T01:09:10;101405.41;;;2.50;100.00
17383;BME280;8809;51.892;8.384;2023-02-16T01:11:56;101400.16;;;2.49;100.00
17383;BME280;8809;51.892;8.384;2023-02-16T01:14:23;101400.00;;;2.47;100.00
17383;BME280;8809;51.892;8.384;2023-02-16T01:16:50;101388.41;;;2.42;100.00
17383;BME280;8809;51.892;8.384;2023-02-16T01:19:18;101389.16;;;2.41;100.00
17383;BME280;8809;51.892;8.384;2023-02-16T01:21:45;101390.75;;;2.39;100.00
17383;BME280;8809;51.892;8.384;2023-02-16T01:24:12;101376.41;;;2.33;100.00
17383;BME280;8809;51.892;8.384;2023-02-16T01:26:41;101380.41;;;2.29;100.00
17383;BME280;8809;51.892;8.384;2023-02-16T01:29:13;101375.00;;;2.26;100.00
17383;BME280;8809;51.892;8.384;2023-02-16T01:31:40;101371.38;;;2.24;100.00
17383;BME280;8809;51.892;8.384;2023-02-16T01:34:07;101368.03;;;2.25;100.00
17383;BME280;8809;51.892;8.384;2023-02-16T01:36:37;101375.63;;;2.23;100.00
17383;BME280;8809;51.892;8.384;2023-02-16T01:39:05;101369.19;;;2.18;100.00
17383;BME280;8809;51.892;8.384;2023-02-16T01:41:55;101380.53;;;2.20;100.00
17383;BME280;8809;51.892;8.384;2023-02-16T01:44:26;101384.75;;;2.20;100.00
17383;BME280;8809;51.892;8.384;2023-02-16T01:46:59;101389.91;;;2.20;100.00
17383;BME280;8809;51.892;8.384;2023-02-16T01:49:28;101385.41;;;2.17;100.00
17383;BME280;8809;51.892;8.384;2023-02-16T01:52:02;101391.44;;;2.18;100.00
17383;BME280;8809;51.892;8.384;2023-02-16T01:54:35;101386.03;;;2.15;100.00
17383;BME280;8809;51.892;8.384;2023-02-16T01:57:12;101386.53;;;2.11;100.00
17383;BME280;8809;51.892;8.384;2023-02-16T02:00:07;101389.13;;;2.11;100.00
17383;BME280;8809;51.892;8.384;2023-02-16T02:02:38;101380.34;;;2.09;100.00
17383;BME280;8809;51.892;8.384;2023-02-16T02:05:16;101382.66;;;2.06;100.00
17383;BME280;8809;51.892;8.384;2023-02-16T02:08:17;101379.56;;;2.00;100.00
17383;BME280;8809;51.892;8.384;2023-02-16T02:11:03;101377.84;;;1.90;100.00
17383;BME280;8809;51.892;8.384;2023-02-16T02:13:38;101377.03;;;1.81;100.00
17383;BME280;8809;51.892;8.384;2023-02-16T02:16:07;101375.03;;;1.68;100.00
17383;BME280;8809;51.892;8.384;2023-02-16T02:18:36;101379.69;;;1.72;100.00
17383;BME280;8809;51.892;8.384;2023-02-16T02:21:20;101378.66;;;1.70;100.00
17383;BME280;8809;51.892;8.384;2023-02-16T02:24:35;101370.94;;;1.70;100.00
17383;BME280;8809;51.892;8.384;2023-02-16T02:27:15;101373.50;;;1.70;100.00
17383;BME280;8809;51.892;8.384;2023-02-16T02:30:12;101365.50;;;1.67;100.00
17383;BME280;8809;51.892;8.384;2023-02-16T02:32:53;101364.47;;;1.65;100.00
17383;BME280;8809;51.892;8.384;2023-02-16T02:35:35;101364.31;;;1.64;100.00
17383;BME280;8809;51.892;8.384;2023-02-16T02:38:09;101361.75;;;1.64;100.00
17383;BME280;8809;51.892;8.384;2023-02-16T02:40:50;101370.13;;;1.61;100.00
17383;BME280;8809;51.892;8.384;2023-02-16T02:43:24;101366.38;;;1.58;100.00
17383;BME280;8809;51.892;8.384;2023-02-16T02:45:56;101364.56;;;1.57;100.00
17383;BME280;8809;51.892;8.384;2023-02-16T02:48:28;101362.75;;;1.56;100.00
17383;BME280;8809;51.892;8.384;2023-02-16T02:50:57;101366.88;;;1.54;100.00
17383;BME280;8809;51.892;8.384;2023-02-16T02:53:44;101369.31;;;1.52;100.00
17383;BME280;8809;51.892;8.384;2023-02-16T02:56:15;101357.97;;;1.50;100.00
17383;BME280;8809;51.892;8.384;2023-02-16T02:59:03;101361.53;;;1.42;100.00
17383;BME280;8809;51.892;8.384;2023-02-16T03:01:53;101353.25;;;1.36;100.00
17383;BME280;8809;51.892;8.384;2023-02-16T03:04:25;101358.53;;;1.37;100.00
17383;BME280;8809;51.892;8.384;2023-02-16T03:06:55;101354.66;;;1.32;100.00
17383;BME280;8809;51.892;8.384;2023-02-16T03:09:24;101365.13;;;1.25;100.00
17383;BME280;8809;51.892;8.384;2023-02-16T03:11:52;101351.91;;;1.21;100.00
17383;BME280;8809;51.892;8.384;2023-02-16T03:14:42;101351.59;;;1.18;100.00
17383;BME280;8809;51.892;8.384;2023-02-16T03:17:13;101355.84;;;1.17;100.00
17383;BME280;8809;51.892;8.384;2023-02-16T03:20:00;101349.78;;;1.17;100.00
17383;BME280;8809;51.892;8.384;2023-02-16T03:22:46;101345.41;;;1.16;100.00
17383;BME280;8809;51.892;8.384;2023-02-16T03:25:33;101347.38;;;1.18;100.00
17383;BME280;8809;51.892;8.384;2023-02-16T03:28:21;101343.50;;;1.13;100.00
17383;BME280;8809;51.892;8.384;2023-02-16T03:31:11;101348.78;;;1.15;100.00
17383;BME280;8809;51.892;8.384;2023-02-16T03:33:40;101355.69;;;1.16;100.00
17383;BME280;8809;51.892;8.384;2023-02-16T03:36:08;101341.84;;;1.14;100.00
17383;BME280;8809;51.892;8.384;2023-02-16T03:38:36;101347.72;;;1.13;100.00
17383;BME280;8809;51.892;8.384;2023-02-16T03:41:04;101340.94;;;1.13;100.00
17383;BME280;8809;51.892;8.384;2023-02-16T03:43:31;101343.97;;;1.09;100.00
17383;BME280;8809;51.892;8.384;2023-02-16T03:45:58;101350.78;;;1.08;100.00
17383;BME280;8809;51.892;8.384;2023-02-16T03:48:26;101343.81;;;1.07;100.00
17383;BME280;8809;51.892;8.384;2023-02-16T03:50:53;101339.97;;;1.02;100.00
17383;BME280;8809;51.892;8.384;2023-02-16T03:53:20;101339.06;;;1.02;100.00
17383;BME280;8809;51.892;8.384;2023-02-16T03:55:47;101339.06;;;1.02;100.00
17383;BME280;8809;51.892;8.384;2023-02-16T03:58:16;101339.66;;;0.99;100.00
17383;BME280;8809;51.892;8.384;2023-02-16T04:00:44;101342.09;;;0.98;100.00
17383;BME280;8809;51.892;8.384;2023-02-16T04:03:12;101337.59;;;0.95;100.00
17383;BME280;8809;51.892;8.384;2023-02-16T04:05:40;101327.19;;;0.94;100.00
17383;BME280;8809;51.892;8.384;2023-02-16T04:08:08;101331.41;;;0.93;100.00
17383;BME280;8809;51.892;8.384;2023-02-16T04:10:36;101318.56;;;0.93;100.00
17383;BME280;8809;51.892;8.384;2023-02-16T04:13:04;101314.19;;;0.92;100.00
17383;BME280;8809;51.892;8.384;2023-02-16T04:15:30;101314.19;;;0.92;100.00
17383;BME280;8809;51.892;8.384;2023-02-16T04:17:57;101314.97;;;0.91;100.00
17383;BME280;8809;51.892;8.384;2023-02-16T04:20:26;101322.81;;;0.93;100.00
17383;BME280;8809;51.892;8.384;2023-02-16T04:22:55;101329.59;;;0.92;100.00
17383;BME280;8809;51.892;8.384;2023-02-16T04:25:22;101328.56;;;0.90;100.00
17383;BME280;8809;51.892;8.384;2023-02-16T04:27:50;101332.78;;;0.90;100.00
17383;BME280;8809;51.892;8.384;2023-02-16T04:30:19;101321.63;;;0.89;100.00
17383;BME280;8809;51.892;8.384;2023-02-16T04:32:47;101330.06;;;0.88;100.00
17383;BME280;8809;51.892;8.384;2023-02-16T04:35:14;101332.66;;;0.88;100.00
17383;BME280;8809;51.892;8.384;2023-02-16T04:37:41;101332.66;;;0.88;100.00
17383;BME280;8809;51.892;8.384;2023-02-16T04:40:11;101329.19;;;0.88;100.00
17383;BME280;8809;51.892;8.384;2023-02-16T04:42:42;101325.69;;;0.87;100.00
17383;BME280;8809;51.892;8.384;2023-02-16T04:45:10;101332.66;;;0.88;100.00
17383;BME280;8809;51.892;8.384;2023-02-16T04:47:38;101339.19;;;0.85;100.00
17383;BME280;8809;51.892;8.384;2023-02-16T04:50:08;101335.72;;;0.84;100.00
17383;BME280;8809;51.892;8.384;2023-02-16T04:52:36;101335.72;;;0.84;100.00
17383;BME280;8809;51.892;8.384;2023-02-16T04:55:03;101325.31;;;0.83;100.00
17383;BME280;8809;51.892;8.384;2023-02-16T04:57:33;101335.56;;;0.83;100.00
17383;BME280;8809;51.892;8.384;2023-02-16T04:59:59;101333.91;;;0.83;100.00
17383;BME280;8809;51.892;8.384;2023-02-16T05:02:30;101333.16;;;0.84;100.00
17383;BME280;8809;51.892;8.384;2023-02-16T05:04:58;101327.09;;;0.84;100.00
17383;BME280;8809;51.892;8.384;2023-02-16T05:07:24;101334.06;;;0.85;100.00
17383;BME280;8809;51.892;8.384;2023-02-16T05:09:51;101331.34;;;0.83;100.00
17383;BME280;8809;51.892;8.384;2023-02-16T05:12:18;101334.81;;;0.84;100.00
17383;BME280;8809;51.892;8.384;2023-02-16T05:15:05;101330.44;;;0.83;100.00
17383;BME280;8809;51.892;8.384;2023-02-16T05:17:32;101332.84;;;0.81;100.00
17383;BME280;8809;51.892;8.384;2023-02-16T05:20:00;101325.16;;;0.81;100.00
17383;BME280;8809;51.892;8.384;2023-02-16T05:22:30;101322.44;;;0.80;100.00
17383;BME280;8809;51.892;8.384;2023-02-16T05:24:58;101318.72;;;0.76;100.00
17383;BME280;8809;51.892;8.384;2023-02-16T05:27:27;101317.91;;;0.77;100.00
17383;BME280;8809;51.892;8.384;2023-02-16T05:29:54;101316.91;;;0.75;100.00
17383;BME280;8809;51.892;8.384;2023-02-16T05:32:24;101315.09;;;0.74;100.00
17383;BME280;8809;51.892;8.384;2023-02-16T05:34:51;101315.84;;;0.73;100.00
17383;BME280;8809;51.892;8.384;2023-02-16T05:37:18;101314.03;;;0.72;100.00
17383;BME280;8809;51.892;8.384;2023-02-16T05:39:45;101312.38;;;0.72;100.00
17383;BME280;8809;51.892;8.384;2023-02-16T05:42:12;101308.00;;;0.71;100.00
17383;BME280;8809;51.892;8.384;2023-02-16T05:44:39;101314.81;;;0.71;100.00
17383;BME280;8809;51.892;8.384;2023-02-16T05:47:06;101324.31;;;0.72;100.00
17383;BME280;8809;51.892;8.384;2023-02-16T05:49:34;101332.03;;;0.72;100.00
17383;BME280;8809;51.892;8.384;2023-02-16T05:52:01;101325.22;;;0.72;100.00
17383;BME280;8809;51.892;8.384;2023-02-16T05:54:28;101331.25;;;0.73;100.00
17383;BME280;8809;51.892;8.384;2023-02-16T05:56:55;101334.72;;;0.73;100.00
17383;BME280;8809;51.892;8.384;2023-02-16T05:59:22;101328.84;;;0.74;100.00
17383;BME280;8809;51.892;8.384;2023-02-16T06:01:49;101322.78;;;0.74;100.00
17383;BME280;8809;51.892;8.384;2023-02-16T06:04:16;101321.13;;;0.74;100.00
17383;BME280;8809;51.892;8.384;2023-02-16T06:06:44;101323.56;;;0.73;100.00
17383;BME280;8809;51.892;8.384;2023-02-16T06:09:11;101336.25;;;0.71;100.00
17383;BME280;8809;51.892;8.384;2023-02-16T06:11:38;101332.78;;;0.71;100.00
17383;BME280;8809;51.892;8.384;2023-02-16T06:14:07;101331.88;;;0.70;100.00
17383;BME280;8809;51.892;8.384;2023-02-16T06:16:36;101326.59;;;0.69;100.00
17383;BME280;8809;51.892;8.384;2023-02-16T06:19:04;101327.34;;;0.68;100.00
17383;BME280;8809;51.892;8.384;2023-02-16T06:21:31;101333.38;;;0.68;100.00
17383;BME280;8809;51.892;8.384;2023-02-16T06:24:00;101331.59;;;0.67;100.00
17383;BME280;8809;51.892;8.384;2023-02-16T06:26:28;101329.91;;;0.68;100.00
17383;BME280;8809;51.892;8.384;2023-02-16T06:28:55;101329.91;;;0.68;100.00
17383;BME280;8809;51.892;8.384;2023-02-16T06:31:22;101327.34;;;0.68;100.00
17383;BME280;8809;51.892;8.384;2023-02-16T06:33:49;101323.88;;;0.67;100.00
17383;BME280;8809;51.892;8.384;2023-02-16T06:36:17;101316.97;;;0.66;100.00
17383;BME280;8809;51.892;8.384;2023-02-16T06:38:46;101325.56;;;0.67;100.00
17383;BME280;8809;51.892;8.384;2023-02-16T06:41:15;101329.81;;;0.66;100.00
17383;BME280;8809;51.892;8.384;2023-02-16T06:43:56;101332.38;;;0.66;100.00
17383;BME280;8809;51.892;8.384;2023-02-16T06:46:24;101334.78;;;0.65;100.00
17383;BME280;8809;51.892;8.384;2023-02-16T06:48:50;101340.97;;;0.67;100.00
17383;BME280;8809;51.892;8.384;2023-02-16T06:51:17;101343.41;;;0.65;100.00
17383;BME280;8809;51.892;8.384;2023-02-16T06:53:45;101340.84;;;0.65;100.00
17383;BME280;8809;51.892;8.384;2023-02-16T06:56:18;101344.31;;;0.66;100.00
17383;BME280;8809;51.892;8.384;2023-02-16T06:58:44;101344.31;;;0.66;100.00
17383;BME280;8809;51.892;8.384;2023-02-16T07:01:11;101341.75;;;0.66;100.00
17383;BME280;8809;51.892;8.384;2023-02-16T07:03:39;101353.81;;;0.67;100.00
17383;BME280;8809;51.892;8.384;2023-02-16T07:06:06;101353.81;;;0.67;100.00
17383;BME280;8809;51.892;8.384;2023-02-16T07:08:33;101345.31;;;0.68;100.00
17383;BME280;8809;51.892;8.384;2023-02-16T07:11:00;101351.38;;;0.68;100.00
17383;BME280;8809;51.892;8.384;2023-02-16T07:13:28;101354.06;;;0.70;100.00
17383;BME280;8809;51.892;8.384;2023-02-16T07:15:55;101351.66;;;0.71;100.00
17383;BME280;8809;51.892;8.384;2023-02-16T07:18:22;101356.19;;;0.74;100.00
17383;BME280;8809;51.892;8.384;2023-02-16T07:20:49;101353.88;;;0.77;100.00
17383;BME280;8809;51.892;8.384;2023-02-16T07:23:16;101358.53;;;0.81;100.00
17383;BME280;8809;51.892;8.384;2023-02-16T07:25:43;101365.78;;;0.85;100.00
17383;BME280;8809;51.892;8.384;2023-02-16T07:28:10;101363.75;;;0.91;100.00
17383;BME280;8809;51.892;8.384;2023-02-16T07:30:39;101360.72;;;0.95;100.00
17383;BME280;8809;51.892;8.384;2023-02-16T07:33:06;101356.88;;;1.00;100.00
17383;BME280;8809;51.892;8.384;2023-02-16T07:35:34;101354.09;;;1.07;100.00
17383;BME280;8809;51.892;8.384;2023-02-16T07:38:05;101337.47;;;1.13;100.00
17383;BME280;8809;51.892;8.384;2023-02-16T07:40:33;101344.03;;;1.19;100.00
17383;BME280;8809;51.892;8.384;2023-02-16T07:43:00;101334.19;;;1.24;100.00
17383;BME280;8809;51.892;8.384;2023-02-16T07:45:28;101333.06;;;1.30;100.00
17383;BME280;8809;51.892;8.384;2023-02-16T07:47:58;101347.50;;;1.38;100.00
17383;BME280;8809;51.892;8.384;2023-02-16T07:50:25;101343.16;;;1.47;100.00
17383;BME280;8809;51.892;8.384;2023-02-16T07:52:52;101341.28;;;1.55;100.00
17383;BME280;8809;51.892;8.384;2023-02-16T07:55:19;101336.84;;;1.63;100.00
17383;BME280;8809;51.892;8.384;2023-02-16T07:57:46;101335.84;;;1.71;100.00
17383;BME280;8809;51.892;8.384;2023-02-16T08:00:20;101328.78;;;1.78;100.00
17383;BME280;8809;51.892;8.384;2023-02-16T08:02:47;101349.13;;;1.85;100.00
17383;BME280;8809;51.892;8.384;2023-02-16T08:05:16;101355.06;;;1.95;100.00
17383;BME280;8809;51.892;8.384;2023-02-16T08:07:43;101364.34;;;2.03;100.00
17383;BME280;8809;51.892;8.384;2023-02-16T08:10:10;101356.56;;;2.11;100.00
17383;BME280;8809;51.892;8.384;2023-02-16T08:12:38;101346.94;;;2.19;100.00
17383;BME280;8809;51.892;8.384;2023-02-16T08:15:05;101342.28;;;2.25;100.00
17383;BME280;8809;51.892;8.384;2023-02-16T08:17:33;101336.13;;;2.33;100.00
17383;BME280;8809;51.892;8.384;2023-02-16T08:20:00;101334.09;;;2.39;100.00
17383;BME280;8809;51.892;8.384;2023-02-16T08:22:36;101342.59;;;2.48;100.00
17383;BME280;8809;51.892;8.384;2023-02-16T08:25:03;101348.25;;;2.54;100.00
17383;BME280;8809;51.892;8.384;2023-02-16T08:27:30;101350.56;;;2.61;100.00
17383;BME280;8809;51.892;8.384;2023-02-16T08:29:58;101351.09;;;2.68;100.00
17383;BME280;8809;51.892;8.384;2023-02-16T08:32:25;101341.31;;;2.74;100.00
17383;BME280;8809;51.892;8.384;2023-02-16T08:34:52;101348.00;;;2.82;100.00
17383;BME280;8809;51.892;8.384;2023-02-16T08:37:19;101344.25;;;2.88;100.00
17383;BME280;8809;51.892;8.384;2023-02-16T08:39:48;101341.31;;;2.94;100.00
17383;BME280;8809;51.892;8.384;2023-02-16T08:42:16;101339.22;;;3.00;100.00
17383;BME280;8809;51.892;8.384;2023-02-16T08:44:43;101340.53;;;3.05;100.00
17383;BME280;8809;51.892;8.384;2023-02-16T08:47:10;101346.31;;;3.13;100.00
17383;BME280;8809;51.892;8.384;2023-02-16T08:49:37;101338.94;;;3.17;100.00
17383;BME280;8809;51.892;8.384;2023-02-16T08:52:05;101342.94;;;3.24;100.00
17383;BME280;8809;51.892;8.384;2023-02-16T08:54:32;101341.75;;;3.30;100.00
17383;BME280;8809;51.892;8.384;2023-02-16T08:57:00;101340.69;;;3.39;100.00
17383;BME280;8809;51.892;8.384;2023-02-16T08:59:28;101337.88;;;3.46;100.00
17383;BME280;8809;51.892;8.384;2023-02-16T09:01:55;101333.31;;;3.53;100.00
17383;BME280;8809;51.892;8.384;2023-02-16T09:04:22;101333.81;;;3.59;100.00
17383;BME280;8809;51.892;8.384;2023-02-16T09:06:50;101328.47;;;3.68;100.00
17383;BME280;8809;51.892;8.384;2023-02-16T09:09:18;101333.25;;;3.73;100.00
17383;BME280;8809;51.892;8.384;2023-02-16T09:11:45;101341.59;;;3.81;100.00
17383;BME280;8809;51.892;8.384;2023-02-16T09:14:14;101333.44;;;3.87;100.00
17383;BME280;8809;51.892;8.384;2023-02-16T09:16:42;101327.09;;;3.93;100.00
17383;BME280;8809;51.892;8.384;2023-02-16T09:19:12;101328.47;;;4.00;100.00
17383;BME280;8809;51.892;8.384;2023-02-16T09:21:40;101326.47;;;4.07;100.00
17383;BME280;8809;51.892;8.384;2023-02-16T09:24:08;101321.00;;;4.15;100.00
17383;BME280;8809;51.892;8.384;2023-02-16T09:26:37;101330.03;;;4.20;100.00
17383;BME280;8809;51.892;8.384;2023-02-16T09:29:08;101340.06;;;4.27;100.00
17383;BME280;8809;51.892;8.384;2023-02-16T09:31:37;101336.16;;;4.32;100.00
17383;BME280;8809;51.892;8.384;2023-02-16T09:34:06;101342.56;;;4.37;100.00
17383;BME280;8809;51.892;8.384;2023-02-16T09:36:34;101353.38;;;4.43;100.00
17383;BME280;8809;51.892;8.384;2023-02-16T09:39:01;101364.19;;;4.49;100.00
17383;BME280;8809;51.892;8.384;2023-02-16T09:41:34;101370.59;;;4.54;100.00
17383;BME280;8809;51.892;8.384;2023-02-16T09:44:13;101370.31;;;4.61;100.00
17383;BME280;8809;51.892;8.384;2023-02-16T09:46:45;101367.41;;;4.68;100.00
17383;BME280;8809;51.892;8.384;2023-02-16T09:49:21;101361.16;;;4.76;100.00
17383;BME280;8809;51.892;8.384;2023-02-16T09:51:57;101366.13;;;4.85;100.00
17383;BME280;8809;51.892;8.384;2023-02-16T09:54:32;101354.78;;;4.95;100.00
17383;BME280;8809;51.892;8.384;2023-02-16T09:57:04;101343.34;;;5.03;100.00
17383;BME280;8809;51.892;8.384;2023-02-16T09:59:40;101343.91;;;5.10;100.00
17383;BME280;8809;51.892;8.384;2023-02-16T10:02:28;101338.63;;;5.20;100.00
17383;BME280;8809;51.892;8.384;2023-02-16T10:05:15;101347.97;;;5.30;100.00
17383;BME280;8809;51.892;8.384;2023-02-16T10:07:54;101348.66;;;5.39;100.00
17383;BME280;8809;51.892;8.384;2023-02-16T10:10:25;101349.25;;;5.47;100.00
17383;BME280;8809;51.892;8.384;2023-02-16T10:13:01;101343.72;;;5.54;100.00
17383;BME280;8809;51.892;8.384;2023-02-16T10:15:31;101346.63;;;5.58;100.00
17383;BME280;8809;51.892;8.384;2023-02-16T10:18:04;101348.91;;;5.66;100.00
17383;BME280;8809;51.892;8.384;2023-02-16T10:20:35;101359.69;;;5.72;100.00
17383;BME280;8809;51.892;8.384;2023-02-16T10:23:12;101365.53;;;5.81;100.00
17383;BME280;8809;51.892;8.384;2023-02-16T10:25:42;101361.84;;;5.89;100.00
17383;BME280;8809;51.892;8.384;2023-02-16T10:28:16;101364.19;;;5.97;100.00
17383;BME280;8809;51.892;8.384;2023-02-16T10:30:48;101361.69;;;6.11;100.00
17383;BME280;8809;51.892;8.384;2023-02-16T10:33:31;101349.50;;;6.21;100.00
17383;BME280;8809;51.892;8.384;2023-02-16T10:36:13;101352.38;;;6.38;100.00
17383;BME280;8809;51.892;8.384;2023-02-16T10:38:45;101358.41;;;6.50;100.00
17383;BME280;8809;51.892;8.384;2023-02-16T10:41:25;101362.84;;;6.64;100.00
17383;BME280;8809;51.892;8.384;2023-02-16T10:43:59;101348.13;;;6.76;100.00
17383;BME280;8809;51.892;8.384;2023-02-16T10:46:30;101348.75;;;6.85;100.00
17383;BME280;8809;51.892;8.384;2023-02-16T10:49:01;101356.25;;;6.94;100.00
17383;BME280;8809;51.892;8.384;2023-02-16T10:51:31;101347.53;;;7.05;100.00
17383;BME280;8809;51.892;8.384;2023-02-16T10:54:03;101354.13;;;7.13;100.00
17383;BME280;8809;51.892;8.384;2023-02-16T10:56:44;101355.53;;;7.21;100.00
17383;BME280;8809;51.892;8.384;2023-02-16T10:59:16;101352.56;;;7.28;100.00
17383;BME280;8809;51.892;8.384;2023-02-16T11:01:45;101351.38;;;7.36;100.00
17383;BME280;8809;51.892;8.384;2023-02-16T11:04:36;101340.28;;;7.52;100.00
17383;BME280;8809;51.892;8.384;2023-02-16T11:07:06;101340.41;;;7.67;100.00
17383;BME280;8809;51.892;8.384;2023-02-16T11:09:35;101347.56;;;7.97;100.00
17383;BME280;8809;51.892;8.384;2023-02-16T11:12:14;101344.31;;;8.14;100.00
17383;BME280;8809;51.892;8.384;2023-02-16T11:14:48;101338.09;;;8.26;100.00
17383;BME280;8809;51.892;8.384;2023-02-16T11:17:17;101341.47;;;8.38;100.00
17383;BME280;8809;51.892;8.384;2023-02-16T11:19:51;101338.84;;;8.51;100.00
17383;BME280;8809;51.892;8.384;2023-02-16T11:22:29;101338.69;;;8.63;100.00
17383;BME280;8809;51.892;8.384;2023-02-16T11:25:18;101338.53;;;8.74;100.00
17383;BME280;8809;51.892;8.384;2023-02-16T11:27:50;101333.81;;;8.82;100.00
17383;BME280;8809;51.892;8.384;2023-02-16T11:30:20;101337.84;;;8.91;100.00
17383;BME280;8809;51.892;8.384;2023-02-16T11:32:54;101344.22;;;8.97;100.00
17383;BME280;8809;51.892;8.384;2023-02-16T11:35:23;101334.69;;;8.97;100.00
17383;BME280;8809;51.892;8.384;2023-02-16T11:37:50;101333.91;;;8.98;100.00
17383;BME280;8809;51.892;8.384;2023-02-16T11:40:25;101337.41;;;8.99;100.00
17383;BME280;8809;51.892;8.384;2023-02-16T11:42:55;101342.00;;;9.03;100.00
17383;BME280;8809;51.892;8.384;2023-02-16T11:45:26;101340.28;;;9.03;100.00
17383;BME280;8809;51.892;8.384;2023-02-16T11:47:58;101334.34;;;9.06;100.00
17383;BME280;8809;51.892;8.384;2023-02-16T11:50:31;101331.84;;;9.07;100.00
17383;BME280;8809;51.892;8.384;2023-02-16T11:53:13;101327.63;;;9.09;100.00
17383;BME280;8809;51.892;8.384;2023-02-16T11:55:43;101330.56;;;9.15;100.00
17383;BME280;8809;51.892;8.384;2023-02-16T11:58:21;101325.56;;;9.18;100.00
17383;BME280;8809;51.892;8.384;2023-02-16T12:00:58;101323.41;;;9.26;100.00
17383;BME280;8809;51.892;8.384;2023-02-16T12:03:53;101326.28;;;9.30;100.00
17383;BME280;8809;51.892;8.384;2023-02-16T12:06:45;101323.03;;;9.35;100.00
17383;BME280;8809;51.892;8.384;2023-02-16T12:09:23;101322.41;;;9.39;100.00
17383;BME280;8809;51.892;8.384;2023-02-16T12:11:59;101318.34;;;9.44;100.00
17383;BME280;8809;51.892;8.384;2023-02-16T12:14:39;101316.13;;;9.50;100.00
17383;BME280;8809;51.892;8.384;2023-02-16T12:17:17;101319.16;;;9.57;100.00
17383;BME280;8809;51.892;8.384;2023-02-16T12:19:47;101317.78;;;9.64;100.00
17383;BME280;8809;51.892;8.384;2023-02-16T12:22:27;101312.94;;;9.70;100.00
17383;BME280;8809;51.892;8.384;2023-02-16T12:25:07;101308.06;;;9.76;100.00
17383;BME280;8809;51.892;8.384;2023-02-16T12:27:48;101312.97;;;9.86;100.00
17383;BME280;8809;51.892;8.384;2023-02-16T12:30:27;101307.53;;;9.98;100.00
17383;BME280;8809;51.892;8.384;2023-02-16T12:33:19;101306.72;;;9.99;100.00
17383;BME280;8809;51.892;8.384;2023-02-16T12:36:05;101303.72;;;10.08;99.32
17383;BME280;8809;51.892;8.384;2023-02-16T12:38:48;101292.63;;;10.12;99.21
17383;BME280;8809;51.892;8.384;2023-02-16T12:41:26;101294.44;;;10.13;98.19
17383;BME280;8809;51.892;8.384;2023-02-16T12:43:59;101287.81;;;10.18;99.99
17383;BME280;8809;51.892;8.384;2023-02-16T12:46:35;101292.44;;;10.23;100.00
17383;BME280;8809;51.892;8.384;2023-02-16T12:49:10;101287.94;;;10.21;99.52
17383;BME280;8809;51.892;8.384;2023-02-16T12:51:44;101283.63;;;10.21;100.00
17383;BME280;8809;51.892;8.384;2023-02-16T12:54:16;101284.41;;;10.19;100.00
17383;BME280;8809;51.892;8.384;2023-02-16T12:56:50;101282.00;;;10.23;100.00
17383;BME280;8809;51.892;8.384;2023-02-16T12:59:22;101274.19;;;10.23;100.00
17383;BME280;8809;51.892;8.384;2023-02-16T13:01:51;101279.66;;;10.28;100.00
17383;BME280;8809;51.892;8.384;2023-02-16T13:04:25;101271.19;;;10.32;100.00
17383;BME280;8809;51.892;8.384;2023-02-16T13:07:00;101265.78;;;10.29;99.57
17383;BME280;8809;51.892;8.384;2023-02-16T13:09:36;101268.38;;;10.29;99.77
17383;BME280;8809;51.892;8.384;2023-02-16T13:12:09;101262.13;;;10.25;99.55
17383;BME280;8809;51.892;8.384;2023-02-16T13:14:43;101261.16;;;10.23;100.00
17383;BME280;8809;51.892;8.384;2023-02-16T13:17:19;101267.09;;;10.21;100.00
17383;BME280;8809;51.892;8.384;2023-02-16T13:19:50;101272.16;;;10.18;100.00
17383;BME280;8809;51.892;8.384;2023-02-16T13:28:08;101246.47;;;10.09;100.00
17383;BME280;8809;51.892;8.384;2023-02-16T13:30:51;101248.81;;;10.04;100.00